Krebs, Oklahoma
Current Conditions -  °F | °C
As of 3:10 AM on Saturday 20 Dec 2014 (Local Time) from KMLC Reporting Station
Haze Haze  
Wind Chill:   Ceiling: 300
Heat Index:   Visibility: 3mi
Dew Point:   Wind: 3mph
Humidity: 96%   Direction: 350°N
Pressure: 30.22"   Gusts: NA
Location:  34.93°N, 95.72°W
Report Text: KMLC 200910Z AUTO 35003KT 3SM BR OVC003 05/04 A3022 RMK AO2 T00500044
Loading
Personal Weather Stations






























Interactive Weather Map New forecast layout! Learn more

10-Day Weather Forecast

Advertisements
Track Severe Weather on mobile